Time;durP1;ratioP1;P1;durP2;ratioP2;P2;SDS_P1;SDS_P2;PMS_P1;PMS_P2;Temp;Humidity;BMP_temperature;BMP_pressure;BME280_temperature;BME280_humidity;BME280_pressure;Samples;Min_cycle;Max_cycle;Signal;HPM_P1;HPM_P2
2022/01/05 00:00:15;;;;;;;;;;;4.10;99.90;;;;;;5070597;28;19912;-80
2022/01/05 00:02:40;;;;;;;;;;;4.10;99.90;;;;;;5082238;28;19947;-80
2022/01/05 00:05:06;;;;;;;;;;;4.10;99.90;;;;;;5060126;28;19916;-80
2022/01/05 00:07:32;;;;;;;;;;;4.10;99.90;;;;;;5078988;28;19919;-80
2022/01/05 00:09:58;;;;;;;;;;;4.10;99.90;;;;;;5080421;28;19909;-80
2022/01/05 00:12:24;;;;;;;;;;;4.10;99.90;;;;;;5061613;28;19916;-80
2022/01/05 00:14:49;;;;;;;;;;;4.10;1.00;;;;;;5089284;28;19978;-80
2022/01/05 00:17:15;;;;;;;;;;;4.10;1.00;;;;;;5081864;28;19919;-80
2022/01/05 00:19:40;;;;;;;;;;;4.10;1.00;;;;;;5070786;28;20002;-79
2022/01/05 00:22:06;;;;;;;;;;;4.10;1.00;;;;;;5074978;28;19936;-80
2022/01/05 00:24:32;;;;;;;;;;;4.10;1.00;;;;;;5063197;28;20015;-80
2022/01/05 00:26:57;;;;;;;;;;;4.10;1.00;;;;;;5079650;28;20012;-80
2022/01/05 00:29:23;;;;;;;;;;;4.10;1.00;;;;;;5086790;28;19912;-80
2022/01/05 00:31:48;;;;;;;;;;;4.10;1.00;;;;;;5059553;28;20003;-80
2022/01/05 00:34:14;;;;;;;;;;;4.10;1.00;;;;;;5065105;28;19913;-80
2022/01/05 00:36:39;;;;;;;;;;;4.10;1.00;;;;;;5092718;28;19916;-80
2022/01/05 00:39:05;;;;;;;;;;;4.10;1.00;;;;;;5080506;28;19913;-81
2022/01/05 00:41:31;;;;;;;;;;;4.00;1.00;;;;;;5084317;28;20284;-81
2022/01/05 00:43:56;;;;;;;;;;;4.00;1.00;;;;;;5077389;28;19935;-80
2022/01/05 00:46:22;;;;;;;;;;;4.00;1.00;;;;;;5068105;28;19916;-80
2022/01/05 00:48:47;;;;;;;;;;;3.90;1.00;;;;;;5054203;28;20332;-80
2022/01/05 00:51:15;;;;;;;;;;;3.90;1.00;;;;;;5061585;28;20007;-80
2022/01/05 00:53:41;;;;;;;;;;;3.90;1.00;;;;;;5087608;28;19944;-80
2022/01/05 00:56:06;;;;;;;;;;;3.90;1.00;;;;;;5070517;28;19913;-80
2022/01/05 00:58:32;;;;;;;;;;;3.90;1.00;;;;;;5083810;28;19959;-80
2022/01/05 01:00:58;;;;;;;;;;;3.90;1.00;;;;;;5088416;28;20400;-80
2022/01/05 01:03:23;;;;;;;;;;;3.90;1.00;;;;;;5067264;28;20006;-80
2022/01/05 01:05:49;;;;;;;;;;;3.90;1.00;;;;;;5056303;28;20008;-81
2022/01/05 01:08:14;;;;;;;;;;;3.90;1.00;;;;;;5088366;28;19908;-80
2022/01/05 01:10:40;;;;;;;;;;;3.90;1.00;;;;;;5069882;28;19913;-80
2022/01/05 01:13:05;;;;;;;;;;;3.90;1.00;;;;;;5086736;28;19908;-80
2022/01/05 01:15:31;;;;;;;;;;;3.90;1.00;;;;;;5068298;28;19912;-81
2022/01/05 01:17:57;;;;;;;;;;;3.90;1.00;;;;;;5094488;28;19912;-81
2022/01/05 01:20:22;;;;;;;;;;;3.90;1.00;;;;;;5054961;28;19913;-80
2022/01/05 01:22:48;;;;;;;;;;;3.90;1.00;;;;;;5062897;28;19908;-80
2022/01/05 01:25:14;;;;;;;;;;;3.90;1.00;;;;;;5079938;28;19927;-80
2022/01/05 01:27:43;;;;;;;;;;;3.80;1.00;;;;;;5093973;28;19908;-80
2022/01/05 01:30:09;;;;;;;;;;;3.80;1.00;;;;;;5087855;28;19913;-80
2022/01/05 01:32:35;;;;;;;;;;;3.80;1.00;;;;;;5063646;28;19908;-80
2022/01/05 01:35:01;;;;;;;;;;;3.90;1.00;;;;;;5075863;28;19938;-80
2022/01/05 01:37:27;;;;;;;;;;;3.90;1.00;;;;;;5065228;28;19916;-80
2022/01/05 01:39:52;;;;;;;;;;;3.80;1.00;;;;;;5053055;28;19980;-80
2022/01/05 01:42:18;;;;;;;;;;;3.80;1.00;;;;;;5070086;28;19912;-81
2022/01/05 01:44:44;;;;;;;;;;;3.80;1.00;;;;;;5070384;28;19919;-80
2022/01/05 01:47:09;;;;;;;;;;;3.80;1.00;;;;;;5086174;28;20287;-80
2022/01/05 01:49:35;;;;;;;;;;;3.70;1.00;;;;;;5075030;28;19913;-80
2022/01/05 01:52:00;;;;;;;;;;;3.70;1.00;;;;;;5071819;28;19955;-80
2022/01/05 01:54:28;;;;;;;;;;;3.70;1.00;;;;;;5079100;28;19913;-80
2022/01/05 01:56:54;;;;;;;;;;;3.60;1.00;;;;;;5080354;28;19970;-80
2022/01/05 01:59:19;;;;;;;;;;;3.60;1.00;;;;;;5059424;28;19912;-80
2022/01/05 02:01:45;;;;;;;;;;;3.60;1.00;;;;;;5079176;28;19908;-80
2022/01/05 02:04:10;;;;;;;;;;;3.50;1.00;;;;;;5077654;28;19913;-80
2022/01/05 02:06:36;;;;;;;;;;;3.50;1.00;;;;;;5069502;28;19912;-80
2022/01/05 02:09:03;;;;;;;;;;;3.50;1.00;;;;;;5080285;28;19913;-80
2022/01/05 02:11:30;;;;;;;;;;;3.40;1.00;;;;;;5086109;28;19916;-80
2022/01/05 02:13:56;;;;;;;;;;;3.40;1.00;;;;;;5090006;28;19913;-80
2022/01/05 02:16:29;;;;;;;;;;;3.40;1.00;;;;;;5069757;28;19916;-79
2022/01/05 02:19:00;;;;;;;;;;;3.40;1.00;;;;;;5067811;28;19952;-80
2022/01/05 02:21:26;;;;;;;;;;;3.40;1.00;;;;;;5082143;28;19975;-80
2022/01/05 02:23:52;;;;;;;;;;;3.30;1.00;;;;;;5075507;28;19908;-80
2022/01/05 02:26:17;;;;;;;;;;;3.30;1.00;;;;;;5067907;28;20338;-80
2022/01/05 02:28:43;;;;;;;;;;;3.30;1.00;;;;;;5067984;28;19922;-80
2022/01/05 02:31:09;;;;;;;;;;;3.20;1.00;;;;;;5063788;28;19939;-80
2022/01/05 02:33:35;;;;;;;;;;;3.20;1.00;;;;;;5061403;28;19990;-80
2022/01/05 02:36:00;;;;;;;;;;;3.20;1.00;;;;;;5080321;28;19924;-80
2022/01/05 02:38:27;;;;;;;;;;;3.20;1.00;;;;;;5068470;28;19919;-80
2022/01/05 02:40:52;;;;;;;;;;;3.10;1.00;;;;;;5063247;28;19913;-80
2022/01/05 02:43:18;;;;;;;;;;;3.10;1.00;;;;;;5077613;28;20279;-80
2022/01/05 02:45:43;;;;;;;;;;;3.10;1.00;;;;;;5070008;28;19916;-80
2022/01/05 02:48:09;;;;;;;;;;;3.10;1.00;;;;;;5089154;28;19912;-80
2022/01/05 02:50:35;;;;;;;;;;;3.10;1.00;;;;;;5088288;28;19909;-80
2022/01/05 02:53:00;;;;;;;;;;;3.00;1.00;;;;;;5054214;28;19928;-80
2022/01/05 02:55:26;;;;;;;;;;;3.00;1.00;;;;;;5085886;28;19909;-80
2022/01/05 02:57:51;;;;;;;;;;;3.00;1.00;;;;;;5051965;28;19952;-80
2022/01/05 03:00:17;;;;;;;;;;;3.00;1.00;;;;;;5086399;28;19908;-80
2022/01/05 03:02:43;;;;;;;;;;;2.90;1.00;;;;;;5074842;28;20293;-80
2022/01/05 03:05:09;;;;;;;;;;;2.90;1.00;;;;;;5064765;28;19951;-80
2022/01/05 03:07:39;;;;;;;;;;;2.90;1.00;;;;;;5080082;28;19978;-80
2022/01/05 03:10:05;;;;;;;;;;;2.90;1.00;;;;;;5065129;28;19912;-80
2022/01/05 03:12:30;;;;;;;;;;;2.80;1.00;;;;;;5084400;28;19935;-80
2022/01/05 03:14:56;;;;;;;;;;;2.80;1.00;;;;;;5067415;28;19912;-80
2022/01/05 03:17:21;;;;;;;;;;;2.80;1.00;;;;;;5086198;28;19947;-80
2022/01/05 03:19:47;;;;;;;;;;;2.80;1.00;;;;;;5085721;28;19979;-80
2022/01/05 03:22:12;;;;;;;;;;;2.80;1.00;;;;;;5067570;28;19919;-80
2022/01/05 03:24:38;;;;;;;;;;;2.80;1.00;;;;;;5064078;28;19916;-80
2022/01/05 03:27:03;;;;;;;;;;;2.70;1.00;;;;;;5096318;28;19912;-80
2022/01/05 03:29:29;;;;;;;;;;;2.70;1.00;;;;;;5090235;28;19919;-80
2022/01/05 03:31:54;;;;;;;;;;;2.70;1.00;;;;;;5090189;28;20360;-80
2022/01/05 03:34:20;;;;;;;;;;;2.70;1.00;;;;;;5091904;28;20014;-80
2022/01/05 03:36:46;;;;;;;;;;;2.70;1.00;;;;;;5071576;28;19916;-80
2022/01/05 03:39:12;;;;;;;;;;;2.70;1.00;;;;;;5093269;28;19927;-80
2022/01/05 03:41:37;;;;;;;;;;;2.70;1.00;;;;;;5089703;28;19908;-80
2022/01/05 03:44:03;;;;;;;;;;;2.60;99.90;;;;;;5093202;28;19928;-80
2022/01/05 03:46:29;;;;;;;;;;;2.70;99.90;;;;;;5068194;28;19943;-80
2022/01/05 03:48:55;;;;;;;;;;;2.60;99.90;;;;;;5083219;28;19912;-80
2022/01/05 03:51:20;;;;;;;;;;;2.60;99.90;;;;;;5068429;28;19908;-80
2022/01/05 03:53:46;;;;;;;;;;;2.60;99.90;;;;;;5074466;28;19912;-80
2022/01/05 03:56:11;;;;;;;;;;;2.60;99.90;;;;;;5072197;28;19912;-80
2022/01/05 03:58:36;;;;;;;;;;;2.50;99.90;;;;;;5068392;28;20253;-80
2022/01/05 04:01:02;;;;;;;;;;;2.50;99.90;;;;;;5069810;28;19913;-80
2022/01/05 04:03:28;;;;;;;;;;;2.50;99.90;;;;;;5088449;28;20202;-80
2022/01/05 04:05:53;;;;;;;;;;;2.50;99.90;;;;;;5086439;28;19912;-80
2022/01/05 04:08:19;;;;;;;;;;;2.50;99.90;;;;;;5088784;28;21632;-81
2022/01/05 04:10:44;;;;;;;;;;;2.40;99.90;;;;;;5087908;28;20303;-80
2022/01/05 04:13:10;;;;;;;;;;;2.40;99.90;;;;;;5074537;28;19912;-80
2022/01/05 04:15:35;;;;;;;;;;;2.40;1.00;;;;;;5068241;28;19909;-80
2022/01/05 04:18:01;;;;;;;;;;;2.40;1.00;;;;;;5092641;28;19908;-80
2022/01/05 04:20:26;;;;;;;;;;;2.40;1.00;;;;;;5068211;28;19949;-80
2022/01/05 04:22:52;;;;;;;;;;;2.40;1.00;;;;;;5075899;28;19919;-80
2022/01/05 04:25:17;;;;;;;;;;;2.30;1.00;;;;;;5045077;28;20584;-80
2022/01/05 04:27:43;;;;;;;;;;;2.30;1.00;;;;;;5067296;28;19931;-80
2022/01/05 04:30:10;;;;;;;;;;;2.30;1.00;;;;;;5084128;28;20334;-80
2022/01/05 04:32:35;;;;;;;;;;;2.30;1.00;;;;;;5076359;28;19939;-80
2022/01/05 04:35:01;;;;;;;;;;;2.30;1.00;;;;;;5083884;28;19912;-80
2022/01/05 04:37:26;;;;;;;;;;;2.30;1.00;;;;;;5077287;28;19923;-80
2022/01/05 04:39:52;;;;;;;;;;;2.30;1.00;;;;;;5084556;28;19912;-80
2022/01/05 04:42:18;;;;;;;;;;;2.20;1.00;;;;;;5067419;28;19963;-80
2022/01/05 04:44:43;;;;;;;;;;;2.20;1.00;;;;;;5063187;28;19958;-80
2022/01/05 04:47:09;;;;;;;;;;;2.20;1.00;;;;;;5085575;28;19917;-80
2022/01/05 04:49:35;;;;;;;;;;;2.20;99.90;;;;;;5064729;28;19912;-80
2022/01/05 04:52:01;;;;;;;;;;;2.20;99.90;;;;;;5080494;28;19958;-80
2022/01/05 04:54:26;;;;;;;;;;;2.20;99.90;;;;;;5062111;28;19912;-80
2022/01/05 04:56:52;;;;;;;;;;;2.20;99.90;;;;;;5082319;28;20395;-81
2022/01/05 04:59:17;;;;;;;;;;;2.20;99.90;;;;;;5062890;28;19947;-80
2022/01/05 05:01:43;;;;;;;;;;;2.20;99.90;;;;;;5081736;28;19913;-80
2022/01/05 05:04:08;;;;;;;;;;;2.20;99.90;;;;;;5078871;28;20377;-80
2022/01/05 05:06:34;;;;;;;;;;;2.20;99.90;;;;;;5072224;28;19924;-81
2022/01/05 05:08:59;;;;;;;;;;;2.10;99.90;;;;;;5048988;28;19916;-80
2022/01/05 05:11:25;;;;;;;;;;;2.10;99.90;;;;;;5083035;28;20034;-80
2022/01/05 05:13:50;;;;;;;;;;;2.10;99.90;;;;;;5054595;28;19956;-80
2022/01/05 05:16:15;;;;;;;;;;;2.10;99.90;;;;;;5066634;28;19931;-80
2022/01/05 05:18:41;;;;;;;;;;;2.10;99.90;;;;;;5076750;28;19912;-80
2022/01/05 05:21:07;;;;;;;;;;;2.10;99.90;;;;;;5085301;28;19908;-80
2022/01/05 05:23:32;;;;;;;;;;;2.20;99.90;;;;;;5062899;28;19919;-79
2022/01/05 05:25:58;;;;;;;;;;;2.20;99.90;;;;;;5087761;28;19920;-80
2022/01/05 05:28:23;;;;;;;;;;;2.20;99.90;;;;;;5080128;28;19993;-80
2022/01/05 05:30:49;;;;;;;;;;;2.20;99.90;;;;;;5088472;28;20418;-80
2022/01/05 05:33:14;;;;;;;;;;;2.30;99.90;;;;;;5080212;28;20373;-79
2022/01/05 05:35:46;;;;;;;;;;;2.20;99.90;;;;;;5087680;28;19919;-80
2022/01/05 05:38:12;;;;;;;;;;;2.20;99.90;;;;;;5060392;28;20526;-80
2022/01/05 05:40:38;;;;;;;;;;;2.20;99.90;;;;;;5084229;28;19912;-80
2022/01/05 05:43:03;;;;;;;;;;;2.20;99.90;;;;;;5066621;28;20373;-80
2022/01/05 05:45:29;;;;;;;;;;;2.20;99.90;;;;;;5064476;28;19916;-80
2022/01/05 05:47:54;;;;;;;;;;;2.20;99.90;;;;;;5089994;28;19953;-80
2022/01/05 05:50:20;;;;;;;;;;;2.20;99.90;;;;;;5065337;28;19962;-80
2022/01/05 05:52:45;;;;;;;;;;;2.30;99.90;;;;;;5073416;28;20394;-80
2022/01/05 05:55:11;;;;;;;;;;;2.30;99.90;;;;;;5084463;28;19916;-80
2022/01/05 05:57:36;;;;;;;;;;;2.30;99.90;;;;;;5090431;28;19908;-79
2022/01/05 06:00:03;;;;;;;;;;;2.30;99.90;;;;;;5063598;28;19977;-80
2022/01/05 06:02:29;;;;;;;;;;;2.40;99.90;;;;;;5073817;28;19979;-80
2022/01/05 06:04:54;;;;;;;;;;;2.40;99.90;;;;;;5064832;28;19920;-80
2022/01/05 06:07:20;;;;;;;;;;;2.40;99.90;;;;;;5084471;28;19921;-80
2022/01/05 06:09:45;;;;;;;;;;;2.40;99.90;;;;;;5057421;28;20296;-80
2022/01/05 06:12:11;;;;;;;;;;;2.40;99.90;;;;;;5065741;28;20296;-80
2022/01/05 06:14:36;;;;;;;;;;;2.40;99.90;;;;;;5082863;28;20009;-80
2022/01/05 06:17:02;;;;;;;;;;;2.40;99.90;;;;;;5062668;28;19912;-80
2022/01/05 06:19:27;;;;;;;;;;;2.40;99.90;;;;;;5088463;28;19912;-80
2022/01/05 06:21:53;;;;;;;;;;;2.50;99.90;;;;;;5061103;28;19909;-80
2022/01/05 06:24:18;;;;;;;;;;;2.50;99.90;;;;;;5064232;28;19912;-80
2022/01/05 06:26:45;;;;;;;;;;;2.60;99.90;;;;;;5066218;28;20280;-79
2022/01/05 06:29:12;;;;;;;;;;;2.60;99.90;;;;;;5089525;28;19912;-79
2022/01/05 06:31:38;;;;;;;;;;;2.60;99.90;;;;;;5072784;28;19969;-80
2022/01/05 06:34:03;;;;;;;;;;;2.60;63.90;;;;;;5057673;28;19936;-79
2022/01/05 06:36:29;;;;;;;;;;;2.60;68.30;;;;;;5065436;28;19995;-79
2022/01/05 06:38:54;;;;;;;;;;;2.60;30.90;;;;;;5076737;28;19975;-79
2022/01/05 06:41:20;;;;;;;;;;;2.60;33.80;;;;;;5061791;28;19912;-79
2022/01/05 06:43:45;;;;;;;;;;;2.60;3.90;;;;;;5087558;28;19916;-79
2022/01/05 06:46:11;;;;;;;;;;;2.60;1.00;;;;;;5083753;28;20012;-80
2022/01/05 06:48:36;;;;;;;;;;;2.60;16.70;;;;;;5093495;28;19912;-79
2022/01/05 06:51:02;;;;;;;;;;;2.60;8.50;;;;;;5066996;28;19924;-79
2022/01/05 06:53:28;;;;;;;;;;;2.60;4.70;;;;;;5094875;28;19967;-79
2022/01/05 06:55:53;;;;;;;;;;;2.70;5.90;;;;;;5067447;28;19904;-79
2022/01/05 06:58:19;;;;;;;;;;;2.70;10.40;;;;;;5077943;28;19908;-80
2022/01/05 07:00:44;;;;;;;;;;;2.70;14.90;;;;;;5056209;28;19912;-78
2022/01/05 07:03:10;;;;;;;;;;;2.70;14.00;;;;;;5093082;28;20413;-79
2022/01/05 07:05:36;;;;;;;;;;;2.70;21.30;;;;;;5060092;28;19920;-79
2022/01/05 07:08:01;;;;;;;;;;;2.80;4.10;;;;;;5063682;28;19917;-79
2022/01/05 07:10:27;;;;;;;;;;;2.80;6.70;;;;;;5072333;28;19919;-81
2022/01/05 07:12:52;;;;;;;;;;;2.80;1.00;;;;;;5080916;28;19958;-81
2022/01/05 07:15:18;;;;;;;;;;;3.00;1.00;;;;;;5079029;28;19916;-80
2022/01/05 07:17:43;;;;;;;;;;;3.10;1.00;;;;;;5065731;28;19912;-80
2022/01/05 07:20:09;;;;;;;;;;;3.10;1.00;;;;;;5078864;28;19984;-80
2022/01/05 07:22:35;;;;;;;;;;;3.10;1.00;;;;;;5058919;28;19920;-80
2022/01/05 07:25:01;;;;;;;;;;;3.10;1.00;;;;;;5088563;28;19909;-80
2022/01/05 07:27:26;;;;;;;;;;;3.10;1.00;;;;;;5097432;28;19966;-80
2022/01/05 07:29:52;;;;;;;;;;;3.10;1.00;;;;;;5062399;28;19913;-81
2022/01/05 07:32:17;;;;;;;;;;;3.10;1.00;;;;;;5064801;28;19913;-80
2022/01/05 07:34:43;;;;;;;;;;;3.10;1.00;;;;;;5069491;28;19919;-80
2022/01/05 07:37:09;;;;;;;;;;;3.00;1.00;;;;;;5042147;28;20483;-80
2022/01/05 07:39:36;;;;;;;;;;;3.00;1.00;;;;;;5082088;28;19966;-81
2022/01/05 07:42:01;;;;;;;;;;;3.00;1.00;;;;;;5067097;28;20061;-80
2022/01/05 07:44:27;;;;;;;;;;;3.00;1.00;;;;;;5076180;28;19959;-80
2022/01/05 07:46:52;;;;;;;;;;;3.00;1.00;;;;;;5052546;28;19940;-81
2022/01/05 07:49:18;;;;;;;;;;;3.10;1.00;;;;;;5071797;28;20023;-80
2022/01/05 07:51:43;;;;;;;;;;;3.10;1.00;;;;;;5057592;28;20333;-81
2022/01/05 07:54:08;;;;;;;;;;;3.00;1.00;;;;;;5075579;28;19912;-81
2022/01/05 07:56:34;;;;;;;;;;;3.10;1.00;;;;;;5081136;28;19916;-80
2022/01/05 07:59:00;;;;;;;;;;;3.10;1.00;;;;;;5066893;28;19912;-80
2022/01/05 08:01:26;;;;;;;;;;;3.10;1.00;;;;;;5058852;28;19912;-80
2022/01/05 08:03:51;;;;;;;;;;;3.20;1.00;;;;;;5083987;28;19919;-80
2022/01/05 08:06:20;;;;;;;;;;;3.30;1.00;;;;;;5067359;28;19917;-80
2022/01/05 08:08:45;;;;;;;;;;;3.30;1.00;;;;;;5074534;28;19973;-80
2022/01/05 08:11:11;;;;;;;;;;;3.40;1.00;;;;;;5080965;28;19963;-80
2022/01/05 08:13:36;;;;;;;;;;;3.50;1.00;;;;;;5064639;28;20058;-80
2022/01/05 08:16:02;;;;;;;;;;;3.40;1.00;;;;;;5087685;28;20026;-80
2022/01/05 08:18:27;;;;;;;;;;;3.40;99.90;;;;;;5074502;28;19924;-81
2022/01/05 08:20:54;;;;;;;;;;;3.40;99.90;;;;;;5072393;28;19912;-81
2022/01/05 08:23:20;;;;;;;;;;;3.40;99.90;;;;;;5059507;28;19920;-80
2022/01/05 08:25:46;;;;;;;;;;;3.40;99.90;;;;;;5076686;28;19923;-81
2022/01/05 08:28:12;;;;;;;;;;;3.40;1.00;;;;;;5049592;28;21389;-80
2022/01/05 08:30:38;;;;;;;;;;;3.40;99.90;;;;;;5068951;28;19916;-80
2022/01/05 08:33:04;;;;;;;;;;;3.40;1.00;;;;;;5073083;28;19920;-81
2022/01/05 08:35:30;;;;;;;;;;;3.50;99.90;;;;;;5060085;28;20324;-80
2022/01/05 08:37:56;;;;;;;;;;;3.50;99.90;;;;;;5056987;28;20331;-80
2022/01/05 08:40:22;;;;;;;;;;;3.50;99.90;;;;;;5057067;28;20384;-80
2022/01/05 08:42:48;;;;;;;;;;;3.50;99.90;;;;;;5057873;28;19917;-80
2022/01/05 08:45:15;;;;;;;;;;;3.60;99.90;;;;;;5061888;28;19919;-80
2022/01/05 08:47:45;;;;;;;;;;;3.60;99.90;;;;;;5074974;28;19912;-80
2022/01/05 08:50:11;;;;;;;;;;;3.60;99.90;;;;;;5060417;28;19916;-80
2022/01/05 08:52:36;;;;;;;;;;;3.60;99.90;;;;;;5073666;28;19920;-79
2022/01/05 08:55:02;;;;;;;;;;;3.60;99.90;;;;;;5081888;28;19921;-79
2022/01/05 08:57:28;;;;;;;;;;;3.60;99.90;;;;;;5060714;28;20011;-81
2022/01/05 08:59:53;;;;;;;;;;;3.60;99.90;;;;;;5054431;28;20121;-80
2022/01/05 09:02:19;;;;;;;;;;;3.70;99.90;;;;;;5053217;28;19913;-80
2022/01/05 09:04:44;;;;;;;;;;;3.70;99.90;;;;;;5057112;28;19995;-79
2022/01/05 09:07:10;;;;;;;;;;;3.70;99.90;;;;;;5057452;28;20288;-80
2022/01/05 09:09:36;;;;;;;;;;;3.70;99.90;;;;;;5058075;28;19917;-80
2022/01/05 09:12:02;;;;;;;;;;;3.80;99.90;;;;;;5082263;28;19995;-80
2022/01/05 09:14:28;;;;;;;;;;;3.90;99.90;;;;;;5068178;28;19952;-79
2022/01/05 09:16:53;;;;;;;;;;;3.90;51.40;;;;;;5074655;28;20012;-79
2022/01/05 09:19:19;;;;;;;;;;;4.00;5.70;;;;;;5079434;28;19919;-79
2022/01/05 09:21:48;;;;;;;;;;;4.20;1.00;;;;;;5074765;28;19924;-79
2022/01/05 09:24:15;;;;;;;;;;;4.20;1.00;;;;;;5074287;28;19912;-80
2022/01/05 09:26:41;;;;;;;;;;;4.30;99.90;;;;;;5072392;28;20600;-80
2022/01/05 09:29:06;;;;;;;;;;;4.20;68.20;;;;;;5090527;28;20379;-80
2022/01/05 09:31:32;;;;;;;;;;;4.30;99.90;;;;;;5057128;28;19912;-80
2022/01/05 09:33:58;;;;;;;;;;;4.40;13.90;;;;;;5068725;28;19915;-79
2022/01/05 09:36:32;;;;;;;;;;;4.40;1.00;;;;;;5080147;28;19916;-80
2022/01/05 09:41:58;;;;;;;;;;;4.60;1.00;;;;;;5079295;28;19934;-79
2022/01/05 09:44:27;;;;;;;;;;;4.50;1.00;;;;;;5065678;28;19948;-80
2022/01/05 09:46:55;;;;;;;;;;;4.60;1.00;;;;;;5076002;28;19917;-79
2022/01/05 09:49:31;;;;;;;;;;;4.60;1.00;;;;;;5075926;28;19912;-80
2022/01/05 09:52:00;;;;;;;;;;;4.60;99.90;;;;;;5077038;28;20294;-80
2022/01/05 09:54:26;;;;;;;;;;;4.60;99.90;;;;;;5078296;28;20007;-80
2022/01/05 09:56:52;;;;;;;;;;;4.60;99.90;;;;;;5075156;28;19954;-80
2022/01/05 09:59:18;;;;;;;;;;;4.50;99.90;;;;;;5066710;28;20392;-80
2022/01/05 10:01:43;;;;;;;;;;;4.50;99.90;;;;;;5064652;28;19912;-80
2022/01/05 10:04:09;;;;;;;;;;;4.50;99.90;;;;;;5059564;28;19919;-80
2022/01/05 10:06:36;;;;;;;;;;;4.50;99.90;;;;;;5083259;28;19916;-80
2022/01/05 10:09:02;;;;;;;;;;;4.50;99.90;;;;;;5077092;28;19958;-80
2022/01/05 10:11:28;;;;;;;;;;;4.50;1.00;;;;;;5076584;28;19912;-80
2022/01/05 10:13:53;;;;;;;;;;;4.50;1.00;;;;;;5065887;28;19919;-80
2022/01/05 10:16:19;;;;;;;;;;;4.50;1.00;;;;;;5081305;28;19912;-80
2022/01/05 10:18:45;;;;;;;;;;;4.50;99.90;;;;;;5089641;28;19919;-81
2022/01/05 10:21:13;;;;;;;;;;;4.50;99.90;;;;;;5071457;28;19995;-81
2022/01/05 10:23:52;;;;;;;;;;;4.50;1.00;;;;;;5077404;28;20443;-81
2022/01/05 10:26:18;;;;;;;;;;;4.50;1.00;;;;;;5082891;28;19962;-81
2022/01/05 10:28:45;;;;;;;;;;;4.60;99.90;;;;;;5070245;28;19912;-80
2022/01/05 10:31:15;;;;;;;;;;;4.70;99.90;;;;;;5066137;28;19991;-80
2022/01/05 10:33:41;;;;;;;;;;;4.90;52.80;;;;;;5080337;28;19912;-80
2022/01/05 10:36:06;;;;;;;;;;;5.20;1.00;;;;;;5061669;28;19942;-81
2022/01/05 10:38:32;;;;;;;;;;;5.40;99.90;;;;;;5067014;28;19917;-80
2022/01/05 10:40:57;;;;;;;;;;;5.50;99.90;;;;;;5077777;28;19916;-81
2022/01/05 10:43:22;;;;;;;;;;;5.50;99.90;;;;;;5085237;28;19958;-81
2022/01/05 10:45:51;;;;;;;;;;;5.50;99.90;;;;;;5066055;28;19917;-81
2022/01/05 10:48:22;;;;;;;;;;;5.60;1.00;;;;;;5089960;28;19919;-81
2022/01/05 10:50:58;;;;;;;;;;;5.80;1.00;;;;;;5080921;28;19912;-81
2022/01/05 10:53:24;;;;;;;;;;;6.10;99.90;;;;;;5063132;28;20354;-80
2022/01/05 10:55:51;;;;;;;;;;;6.30;1.00;;;;;;5053953;28;19913;-81
2022/01/05 10:58:17;;;;;;;;;;;6.20;1.00;;;;;;5077570;28;19912;-80
2022/01/05 11:00:47;;;;;;;;;;;6.20;99.90;;;;;;5062849;28;19920;-80
2022/01/05 11:03:27;;;;;;;;;;;6.10;99.90;;;;;;5058759;28;20349;-81
2022/01/05 11:06:13;;;;;;;;;;;6.10;99.90;;;;;;5052405;28;19912;-81
2022/01/05 11:08:55;;;;;;;;;;;5.80;1.00;;;;;;5077070;28;20430;-81
2022/01/05 11:11:37;;;;;;;;;;;5.80;1.00;;;;;;5067249;28;19934;-81
2022/01/05 11:14:05;;;;;;;;;;;6.00;1.00;;;;;;5073829;28;19935;-82
2022/01/05 11:16:31;;;;;;;;;;;5.90;1.00;;;;;;5090073;28;20276;-81
2022/01/05 11:19:17;;;;;;;;;;;6.00;1.00;;;;;;5071992;28;19912;-81
2022/01/05 11:21:54;;;;;;;;;;;6.10;1.00;;;;;;5056595;28;19956;-81
2022/01/05 11:24:20;;;;;;;;;;;6.40;1.00;;;;;;5068708;28;20376;-81
2022/01/05 11:26:46;;;;;;;;;;;6.80;99.90;;;;;;5087852;28;19917;-81
2022/01/05 11:29:12;;;;;;;;;;;7.10;99.90;;;;;;5061479;28;19975;-81
2022/01/05 11:31:38;;;;;;;;;;;7.00;37.60;;;;;;5063403;28;19930;-81
2022/01/05 11:34:03;;;;;;;;;;;7.00;1.00;;;;;;5081771;28;20357;-81
2022/01/05 11:36:29;;;;;;;;;;;6.80;1.00;;;;;;5052319;28;19917;-81
2022/01/05 11:38:54;;;;;;;;;;;6.70;1.00;;;;;;5085111;28;19912;-81
2022/01/05 11:41:21;;;;;;;;;;;6.60;1.00;;;;;;5058431;28;19921;-80
2022/01/05 11:43:46;;;;;;;;;;;6.50;1.00;;;;;;5048266;28;20274;-81
2022/01/05 11:46:16;;;;;;;;;;;6.40;1.00;;;;;;5075443;28;19923;-82
2022/01/05 11:48:57;;;;;;;;;;;6.30;1.00;;;;;;5078245;28;19908;-81
2022/01/05 11:51:46;;;;;;;;;;;6.40;1.00;;;;;;5062755;28;19933;-81
2022/01/05 11:54:12;;;;;;;;;;;6.70;1.00;;;;;;5067885;28;19919;-81
2022/01/05 11:56:47;;;;;;;;;;;6.90;1.00;;;;;;5064519;28;20300;-81
2022/01/05 11:59:21;;;;;;;;;;;6.90;1.00;;;;;;5062226;28;19913;-81
2022/01/05 12:01:57;;;;;;;;;;;6.70;1.00;;;;;;5070298;28;20391;-81
2022/01/05 12:04:23;;;;;;;;;;;6.60;1.00;;;;;;5041468;28;19959;-82
2022/01/05 12:06:49;;;;;;;;;;;6.70;1.00;;;;;;5068979;28;19916;-81
2022/01/05 12:09:17;;;;;;;;;;;6.80;1.00;;;;;;5064330;28;19912;-81
2022/01/05 12:11:43;;;;;;;;;;;7.00;1.00;;;;;;5082284;28;19917;-81
2022/01/05 12:14:21;;;;;;;;;;;7.10;1.00;;;;;;5047819;28;20280;-81
2022/01/05 12:17:01;;;;;;;;;;;6.90;1.00;;;;;;5072413;28;19918;-80
2022/01/05 12:27:24;;;;;;;;;;;6.40;1.00;;;;;;5092901;27;19923;-79
2022/01/05 12:29:50;;;;;;;;;;;6.40;1.00;;;;;;5093610;28;20004;-80
2022/01/05 12:32:34;;;;;;;;;;;6.40;1.00;;;;;;5093114;28;19915;-80
2022/01/05 12:35:03;;;;;;;;;;;6.20;1.00;;;;;;5093999;28;19912;-79
2022/01/05 12:37:46;;;;;;;;;;;6.10;1.00;;;;;;5092616;28;20285;-79
2022/01/05 12:40:24;;;;;;;;;;;6.00;1.00;;;;;;5093023;28;20269;-80
2022/01/05 12:43:12;;;;;;;;;;;5.90;97.30;;;;;;5091437;28;19912;-80
2022/01/05 12:45:57;;;;;;;;;;;5.90;99.90;;;;;;5091417;28;19908;-80
2022/01/05 12:48:32;;;;;;;;;;;5.90;99.90;;;;;;5101088;28;19926;-80
2022/01/05 12:51:20;;;;;;;;;;;6.00;99.90;;;;;;5086051;28;20017;-80
2022/01/05 12:53:49;;;;;;;;;;;6.10;99.90;;;;;;5083436;28;19908;-80
2022/01/05 12:56:24;;;;;;;;;;;6.10;99.90;;;;;;5090344;28;19924;-80
2022/01/05 12:58:51;;;;;;;;;;;6.20;99.90;;;;;;5091576;28;19966;-80
2022/01/05 13:01:20;;;;;;;;;;;6.20;99.90;;;;;;5092294;28;19954;-80
2022/01/05 13:03:46;;;;;;;;;;;6.30;99.90;;;;;;5089788;28;19908;-80
2022/01/05 13:06:14;;;;;;;;;;;6.30;99.90;;;;;;5091620;28;19920;-80
2022/01/05 13:08:47;;;;;;;;;;;6.20;99.90;;;;;;5087049;28;19909;-81
2022/01/05 13:11:13;;;;;;;;;;;6.20;99.90;;;;;;5089682;28;19936;-80
2022/01/05 13:13:42;;;;;;;;;;;6.20;99.90;;;;;;5086863;28;19908;-80
2022/01/05 13:16:08;;;;;;;;;;;6.10;99.90;;;;;;5092149;28;19923;-80
2022/01/05 13:18:34;;;;;;;;;;;6.10;99.90;;;;;;5086892;28;19988;-79
2022/01/05 13:20:59;;;;;;;;;;;6.20;99.90;;;;;;5074808;28;19920;-79
2022/01/05 13:23:24;;;;;;;;;;;6.20;99.90;;;;;;5081843;28;19967;-80
2022/01/05 13:25:50;;;;;;;;;;;6.10;99.90;;;;;;5090164;28;19916;-79
2022/01/05 13:28:15;;;;;;;;;;;6.10;99.90;;;;;;5092630;28;19908;-79
2022/01/05 13:30:41;;;;;;;;;;;6.00;99.90;;;;;;5087499;28;19916;-79
2022/01/05 13:33:08;;;;;;;;;;;6.00;99.90;;;;;;5071715;28;20404;-79
2022/01/05 13:35:41;;;;;;;;;;;6.00;99.90;;;;;;5073073;28;19917;-79
2022/01/05 13:38:14;;;;;;;;;;;6.00;99.90;;;;;;5070537;28;19968;-80
2022/01/05 13:40:42;;;;;;;;;;;5.90;99.90;;;;;;5071474;28;19912;-79
2022/01/05 13:43:08;;;;;;;;;;;5.90;1.00;;;;;;5076825;28;19912;-79
2022/01/05 13:45:34;;;;;;;;;;;5.90;1.00;;;;;;5073619;28;19913;-79
2022/01/05 13:48:02;;;;;;;;;;;5.90;1.00;;;;;;5077598;28;19973;-80
2022/01/05 13:50:33;;;;;;;;;;;5.90;1.00;;;;;;5060320;28;19920;-79
2022/01/05 13:53:06;;;;;;;;;;;5.90;1.00;;;;;;5061387;28;19928;-80
2022/01/05 13:55:33;;;;;;;;;;;5.90;1.00;;;;;;5077135;28;20385;-79
2022/01/05 13:58:18;;;;;;;;;;;6.00;1.00;;;;;;5060850;28;19984;-79
2022/01/05 14:00:45;;;;;;;;;;;5.90;1.00;;;;;;5062602;28;20369;-79
2022/01/05 14:03:24;;;;;;;;;;;5.90;1.00;;;;;;5058171;28;20365;-81
2022/01/05 14:05:50;;;;;;;;;;;6.00;1.00;;;;;;5073024;28;19912;-79
2022/01/05 14:08:15;;;;;;;;;;;6.00;99.90;;;;;;5070468;28;19919;-79
2022/01/05 14:10:41;;;;;;;;;;;5.90;99.90;;;;;;5078446;28;19916;-79
2022/01/05 14:13:07;;;;;;;;;;;5.90;99.90;;;;;;5061231;28;19962;-79
2022/01/05 14:15:33;;;;;;;;;;;5.90;99.90;;;;;;5075808;28;19917;-79
2022/01/05 14:18:01;;;;;;;;;;;5.90;1.00;;;;;;5078661;28;19912;-80
2022/01/05 14:20:28;;;;;;;;;;;5.90;99.90;;;;;;5060836;28;20330;-80
2022/01/05 14:23:00;;;;;;;;;;;5.90;1.00;;;;;;5060360;28;19919;-80
2022/01/05 14:25:37;;;;;;;;;;;5.90;1.00;;;;;;5076546;28;19912;-80
2022/01/05 14:28:33;;;;;;;;;;;5.90;99.90;;;;;;5077586;28;19913;-80
2022/01/05 14:31:00;;;;;;;;;;;5.90;1.00;;;;;;5062376;28;19913;-80
2022/01/05 14:33:38;;;;;;;;;;;5.90;1.00;;;;;;5076345;28;19912;-80
2022/01/05 14:36:05;;;;;;;;;;;5.90;1.00;;;;;;5076932;28;19997;-80
2022/01/05 14:38:30;;;;;;;;;;;5.90;1.00;;;;;;5078200;28;20260;-80
2022/01/05 14:41:11;;;;;;;;;;;5.90;9.70;;;;;;5079127;28;19940;-80
2022/01/05 14:43:38;;;;;;;;;;;5.90;99.90;;;;;;5060865;28;19964;-80
2022/01/05 14:46:04;;;;;;;;;;;5.90;1.00;;;;;;5078378;28;19912;-80
2022/01/05 14:48:29;;;;;;;;;;;5.90;99.90;;;;;;5075969;28;19958;-80